GOZ weather

Gorna Oryahovitsa Airport
Gorna Oryahovitsa, Veliko Tarnovo Province, Bulgaria

Public forecast

Using degrees Celsius for public forecast. Weather courtesy of forecast.io.

Current aviation weather report (METAR) for Gorna Oryahovitsa Airport

Retrieved 2019/10/15 02:30 UTC (6 minutes ago):

LBGO 150230Z AUTO 00000KT 9000 NCD 06/06 Q1019

Aviation forecast (TAF) for Gorna Oryahovitsa Airport

Retrieved 2019-10-15 00:00 UTC (3 hours ago):

TAF LBGO 142300Z 1500/1524 VRB04KT CAVOK TEMPO 1500/1506 2000 BR SCT010 PROB40 1502/1505 0600 BCFG SCT004